Archiv-/Tagesdaten

--Timestamp---	Temp	Chill	HIndex	Humid	Dewpt	Wind	HiWind	WindDir	Rain	Barom	        Solar	ET	UV
--------------	----	-----	------	-----	-----	----	------	-------	----	-----	        -----	--	--
20081106 00:05	5.8	5.8	5.8	90	4.3	0	0	247	0.00	1013.244	0	0.000	0
20081106 00:10	5.8	5.8	5.8	90	4.3	0	0	247	0.00	1013.244	0	0.000	0
20081106 00:15	5.8	5.8	5.8	91	4.4	2	5	247	0.00	1013.380	0	0.000	0
20081106 00:20	5.8	5.8	5.8	91	4.5	2	3	247	0.00	1013.346	0	0.000	0
20081106 00:25	5.8	5.8	5.8	91	4.4	0	3	247	0.00	1013.549	0	0.000	0
20081106 00:30	5.8	5.8	5.8	91	4.5	0	0	247	0.00	1013.414	0	0.000	0
20081106 00:35	5.9	5.9	5.9	91	4.6	0	2	247	0.00	1013.346	0	0.000	0
20081106 00:40	6.0	6.0	6.0	91	4.6	0	3	247	0.00	1013.414	0	0.000	0
20081106 00:45	5.9	5.9	5.9	91	4.6	2	6	247	0.00	1013.515	0	0.000	0
20081106 00:50	5.8	5.8	5.8	91	4.5	3	8	202	0.00	1013.481	0	0.000	0
20081106 00:55	5.7	5.7	5.7	90	4.2	3	6	202	0.00	1013.549	0	0.000	0
20081106 01:00	5.6	5.6	5.6	90	4.1	2	5	202	0.00	1013.549	0	0.000	0
20081106 01:05	5.6	5.6	5.6	90	4.0	2	5	202	0.00	1014.023	0	0.000	0
20081106 01:10	5.5	5.5	5.5	90	4.0	2	5	202	0.00	1013.922	0	0.000	0
20081106 01:15	5.4	5.4	5.4	90	3.9	0	3	202	0.00	1013.854	0	0.000	0
20081106 01:20	5.5	5.5	5.5	91	4.1	2	3	202	0.00	1013.922	0	0.000	0
20081106 01:25	5.6	5.6	5.6	91	4.3	2	3	202	0.00	1013.854	0	0.000	0
20081106 01:30	5.8	5.8	5.8	91	4.4	2	5	202	0.00	1013.888	0	0.000	0
20081106 01:35	5.8	5.8	5.8	91	4.5	2	5	270	0.00	1013.854	0	0.000	0
20081106 01:40	5.7	5.7	5.7	90	4.2	2	5	270	0.00	1014.159	0	0.000	0
20081106 01:45	5.3	5.3	5.3	89	3.7	0	3	270	0.00	1014.125	0	0.000	0
20081106 01:50	5.1	5.1	5.1	90	3.6	0	5	270	0.00	1014.057	0	0.000	0
20081106 01:55	5.1	5.1	5.1	90	3.6	0	3	270	0.00	1014.023	0	0.000	0
20081106 02:00	5.1	5.1	5.1	90	3.6	0	2	270	0.00	1013.989	0	0.000	0
20081106 02:05	4.9	4.9	4.9	90	3.4	0	2	270	0.00	1014.125	0	0.000	0
20081106 02:10	4.9	4.9	4.9	91	3.6	0	3	270	0.00	1014.125	0	0.000	0
20081106 02:15	4.9	4.9	4.9	91	3.6	0	3	270	0.00	1014.159	0	0.000	0
20081106 02:20	4.8	4.8	4.8	91	3.5	0	0	270	0.00	1014.125	0	0.000	0
20081106 02:25	4.8	4.8	4.8	91	3.5	0	2	270	0.00	1014.192	0	0.000	0
20081106 02:30	4.8	4.8	4.8	91	3.5	0	5	270	0.00	1014.260	0	0.000	0
20081106 02:35	4.8	4.8	4.8	91	3.4	0	0	270	0.00	1014.226	0	0.000	0
20081106 02:40	4.7	4.7	4.7	91	3.4	0	3	270	0.00	1014.260	0	0.000	0
20081106 02:45	4.6	4.6	4.6	91	3.2	0	0	270	0.00	1014.362	0	0.000	0
20081106 02:50	4.4	4.4	4.4	91	3.1	0	0	270	0.00	1014.260	0	0.000	0
20081106 02:55	4.4	4.4	4.4	91	3.0	0	0	270	0.00	1014.294	0	0.000	0
20081106 03:00	4.3	4.3	4.3	91	3.0	0	0	270	0.00	1014.362	0	0.000	0
20081106 03:05	4.3	4.3	4.3	91	2.9	0	0	270	0.00	1014.463	0	0.000	0
20081106 03:10	4.3	4.3	4.3	91	2.9	0	2	270	0.00	1014.497	0	0.000	0
20081106 03:15	4.3	4.3	4.3	91	2.9	0	2	270	0.00	1014.497	0	0.000	0
20081106 03:20	4.2	4.2	4.2	92	3.0	0	0	270	0.00	1014.463	0	0.000	0
20081106 03:25	4.2	4.2	4.2	92	3.0	0	2	270	0.00	1014.599	0	0.000	0
20081106 03:30	4.3	4.3	4.3	92	3.1	0	0	270	0.00	1014.666	0	0.000	0
20081106 03:35	4.5	4.5	4.5	92	3.3	2	5	270	0.00	1014.599	0	0.000	0
20081106 03:40	4.7	4.7	4.7	93	3.6	0	3	270	0.00	1014.599	0	0.000	0
20081106 03:45	4.8	4.8	4.8	93	3.7	0	2	270	0.00	1014.565	0	0.000	0
20081106 03:50	4.9	4.9	4.9	93	3.9	0	3	270	0.00	1014.599	0	0.000	0
20081106 03:55	5.1	5.1	5.1	93	4.0	0	3	270	0.00	1014.599	0	0.000	0
20081106 04:00	5.2	5.2	5.2	93	4.2	0	2	270	0.00	1014.633	0	0.000	0
20081106 04:05	5.3	5.3	5.3	93	4.2	0	0	270	0.00	1014.971	0	0.000	0
20081106 04:10	5.3	5.3	5.3	93	4.3	0	2	270	0.00	1014.802	0	0.000	0
20081106 04:15	5.4	5.4	5.4	93	4.4	0	3	270	0.00	1014.836	0	0.000	0
20081106 04:20	5.6	5.6	5.6	94	4.7	2	3	270	0.00	1014.870	0	0.000	0
20081106 04:25	5.7	5.7	5.7	94	4.8	2	5	270	0.00	1014.937	0	0.000	0
20081106 04:30	5.8	5.8	5.8	94	4.9	0	3	270	0.00	1014.870	0	0.000	0
20081106 04:35	5.8	5.8	5.8	94	4.9	2	3	270	0.00	1014.937	0	0.000	0
20081106 04:40	5.9	5.9	5.9	94	5.0	2	3	270	0.00	1015.005	0	0.000	0
20081106 04:45	5.9	5.9	5.9	94	5.1	2	3	270	0.00	1015.073	0	0.000	0
20081106 04:50	5.9	5.9	5.9	94	5.1	0	3	270	0.00	1015.107	0	0.000	0
20081106 04:55	5.9	5.9	5.9	94	5.1	2	5	270	0.00	1015.107	0	0.000	0
20081106 05:00	5.9	5.9	5.9	94	5.1	2	5	270	0.00	1015.073	0	0.000	0
20081106 05:05	5.9	5.9	5.9	94	5.1	3	6	292	0.00	1015.107	0	0.000	0
20081106 05:10	5.9	5.9	5.9	94	5.1	2	5	292	0.00	1015.107	0	0.000	0
20081106 05:15	6.0	6.0	6.0	94	5.1	2	5	292	0.00	1015.073	0	0.000	0
20081106 05:20	6.0	6.0	6.0	94	5.1	3	6	292	0.00	1015.073	0	0.000	0
20081106 05:25	5.9	5.9	5.9	94	5.1	3	5	270	0.00	1015.141	0	0.000	0
20081106 05:30	5.9	5.9	5.9	94	5.1	2	5	270	0.00	1015.073	0	0.000	0
20081106 05:35	6.0	6.0	6.0	94	5.1	2	5	270	0.00	1015.073	0	0.000	0
20081106 05:40	6.0	6.0	6.0	94	5.1	0	3	270	0.00	1014.971	0	0.000	0
20081106 05:45	6.0	6.0	6.0	94	5.1	2	5	270	0.00	1014.937	0	0.000	0
20081106 05:50	6.0	6.0	6.0	94	5.1	2	5	270	0.00	1014.937	0	0.000	0
20081106 05:55	6.1	6.1	6.1	94	5.2	2	3	270	0.00	1014.937	0	0.000	0
20081106 06:00	6.1	6.1	6.1	94	5.2	0	2	270	0.00	1014.904	0	0.000	0
20081106 06:05	6.1	6.1	6.1	94	5.2	0	3	270	0.00	1015.073	0	0.000	0
20081106 06:10	6.2	6.2	6.2	95	5.4	0	3	270	0.00	1015.005	0	0.000	0
20081106 06:15	6.2	6.2	6.2	95	5.4	0	2	270	0.00	1014.937	0	0.000	0
20081106 06:20	6.2	6.2	6.2	95	5.4	2	5	270	0.00	1014.937	0	0.000	0
20081106 06:25	6.2	6.2	6.2	95	5.4	0	3	270	0.00	1014.904	0	0.000	0
20081106 06:30	6.2	6.2	6.2	94	5.3	0	3	270	0.00	1015.039	0	0.000	0
20081106 06:35	6.2	6.2	6.2	94	5.3	0	2	270	0.00	1015.107	0	0.000	0
20081106 06:40	6.2	6.2	6.2	95	5.5	0	3	270	0.00	1015.208	0	0.000	0
20081106 06:45	6.2	6.2	6.2	95	5.5	0	0	270	0.00	1015.141	0	0.000	0
20081106 06:50	6.2	6.2	6.2	95	5.5	0	0	270	0.20	1015.174	0	0.000	0
20081106 06:55	6.2	6.2	6.2	95	5.5	0	0	270	0.00	1015.310	0	0.000	0
20081106 07:00	6.3	6.3	6.3	95	5.5	0	0	270	0.00	1015.378	0	0.000	0
20081106 07:05	6.3	6.3	6.3	95	5.5	0	0	270	0.00	1015.479	0	0.000	0
20081106 07:10	6.3	6.3	6.3	95	5.5	0	0	270	0.00	1015.411	0	0.000	0
20081106 07:15	6.3	6.3	6.3	95	5.5	0	0	270	0.00	1015.479	0	0.000	0
20081106 07:20	6.3	6.3	6.3	95	5.5	0	0	270	0.00	1015.581	0	0.000	0
20081106 07:25	6.3	6.3	6.3	95	5.6	0	3	270	0.00	1015.479	4	0.000	0
20081106 07:30	6.3	6.3	6.3	95	5.6	0	3	270	0.00	1015.445	7	0.000	0
20081106 07:35	6.3	6.3	6.3	95	5.6	0	3	270	0.00	1015.445	9	0.000	0
20081106 07:40	6.3	6.3	6.3	95	5.6	2	5	270	0.00	1015.445	13	0.000	0
20081106 07:45	6.4	6.4	6.4	95	5.6	2	5	270	0.00	1015.378	20	0.000	0
20081106 07:50	6.4	6.4	6.4	95	5.7	0	3	270	0.00	1015.411	25	0.000	0
20081106 07:55	6.4	6.4	6.4	95	5.7	2	6	315	0.00	1015.445	23	0.000	0
20081106 08:00	6.5	6.5	6.5	95	5.8	0	0	315	0.00	1015.547	28	0.000	0
20081106 08:05	6.6	6.6	6.6	95	5.8	0	3	315	0.00	1015.513	38	0.000	0
20081106 08:10	6.7	6.7	6.7	95	5.9	0	5	315	0.00	1015.513	46	0.000	0
20081106 08:15	6.7	6.7	6.7	95	5.9	2	5	315	0.00	1015.615	40	0.000	0
20081106 08:20	6.7	6.7	6.7	95	5.9	0	3	247	0.00	1015.581	31	0.000	0
20081106 08:25	6.6	6.6	6.6	95	5.9	2	5	247	0.00	1015.581	21	0.000	0
20081106 08:30	6.6	6.6	6.6	95	5.9	2	5	247	0.00	1015.649	32	0.000	0
20081106 08:35	6.6	6.6	6.6	95	5.9	0	3	247	0.00	1015.615	37	0.000	0
20081106 08:40	6.6	6.6	6.6	95	5.9	0	2	247	0.00	1015.581	35	0.000	0
20081106 08:45	6.7	6.7	6.7	95	5.9	0	5	247	0.00	1015.547	37	0.000	0
20081106 08:50	6.7	6.7	6.7	95	6.0	2	5	247	0.00	1015.479	36	0.000	0
20081106 08:55	6.7	6.7	6.7	95	6.0	2	5	292	0.00	1015.479	38	0.000	0
20081106 09:00	6.7	6.7	6.7	95	5.9	3	6	247	0.00	1015.411	38	0.020	0
20081106 09:05	6.7	6.7	6.7	95	5.9	2	5	247	0.00	1015.750	42	0.000	0
20081106 09:10	6.7	6.7	6.7	95	5.9	0	0	247	0.00	1015.750	45	0.000	0
20081106 09:15	6.7	6.7	6.7	95	5.9	0	2	247	0.00	1015.784	42	0.000	0
20081106 09:20	6.7	6.7	6.7	95	6.0	0	3	247	0.00	1015.716	41	0.000	0
20081106 09:25	6.8	6.8	6.8	95	6.0	2	5	247	0.00	1015.649	47	0.000	0
20081106 09:30	6.7	6.7	6.7	95	6.0	2	5	247	0.00	1015.682	50	0.000	0
20081106 09:35	6.7	6.7	6.7	95	6.0	2	5	247	0.00	1015.682	54	0.000	0
20081106 09:40	6.7	6.7	6.7	95	6.0	3	6	247	0.00	1015.615	61	0.000	0
20081106 09:45	6.7	6.7	6.7	95	6.0	3	6	292	0.00	1015.581	68	0.000	0
20081106 09:50	6.7	6.7	6.7	95	6.0	2	6	292	0.00	1015.649	65	0.000	0
20081106 09:55	6.7	6.7	6.7	95	6.0	2	6	292	0.00	1015.513	44	0.000	0
20081106 10:00	6.7	6.7	6.7	95	5.9	2	6	247	0.00	1015.547	32	0.020	0
20081106 10:05	6.7	6.7	6.7	95	5.9	2	3	247	0.00	1015.581	48	0.000	0
20081106 10:10	6.7	6.7	6.7	95	6.0	0	3	247	0.00	1015.615	66	0.000	0
20081106 10:15	6.8	6.8	6.8	95	6.1	2	6	247	0.00	1015.547	76	0.000	0
20081106 10:20	6.9	6.9	6.9	95	6.1	2	8	247	0.00	1015.513	118	0.000	0
20081106 10:25	6.8	6.8	6.8	95	6.1	0	3	247	0.00	1015.411	124	0.000	1
20081106 10:30	6.9	6.9	6.9	95	6.1	2	5	247	0.00	1015.344	99	0.000	0
20081106 10:35	6.9	6.9	6.9	95	6.2	0	2	247	0.00	1015.310	98	0.000	0
20081106 10:40	6.9	6.9	6.9	95	6.2	0	3	247	0.00	1015.174	98	0.000	0
20081106 10:45	7.0	7.0	7.0	95	6.3	0	3	247	0.00	1015.276	95	0.000	0
20081106 10:50	7.1	7.1	7.1	95	6.3	0	3	247	0.00	1015.310	86	0.000	0
20081106 10:55	7.1	7.1	7.1	95	6.3	3	6	0	0.00	1015.276	88	0.000	0
20081106 11:00	7.0	7.0	7.0	95	6.3	2	5	22	0.00	1015.310	68	0.020	0
20081106 11:05	6.9	6.9	6.9	95	6.2	2	3	22	0.00	1015.344	75	0.000	1
20081106 11:10	6.8	6.8	6.8	95	6.1	2	5	22	0.00	1015.378	101	0.000	1
20081106 11:15	6.8	6.8	6.8	95	6.0	2	5	67	0.00	1015.242	57	0.000	0
20081106 11:20	6.8	6.8	6.8	95	6.0	0	0	67	0.00	1015.310	73	0.000	0
20081106 11:25	6.9	6.9	6.9	95	6.2	2	6	45	0.00	1015.310	76	0.000	0
20081106 11:30	7.0	7.0	7.0	95	6.3	0	3	0	0.00	1015.344	125	0.000	1
20081106 11:35	7.1	7.1	7.1	95	6.4	0	3	0	0.00	1015.310	126	0.000	1
20081106 11:40	7.2	7.2	7.2	95	6.4	0	3	0	0.00	1015.242	105	0.000	1
20081106 11:45	7.2	7.2	7.2	95	6.5	0	2	0	0.00	1015.208	85	0.000	0
20081106 11:50	7.2	7.2	7.2	95	6.5	0	3	0	0.00	1015.208	99	0.000	0
20081106 11:55	7.3	7.3	7.3	95	6.5	2	3	0	0.00	1015.141	97	0.000	0
20081106 12:00	7.2	7.2	7.2	95	6.5	2	6	90	0.00	1015.141	83	0.040	0
20081106 12:05	7.2	7.2	7.2	95	6.5	2	5	90	0.00	1015.107	109	0.000	1
20081106 12:10	7.2	7.2	7.2	95	6.4	3	6	90	0.00	1015.073	116	0.000	1
20081106 12:15	7.2	7.2	7.2	95	6.4	3	6	22	0.00	1015.005	139	0.000	1
20081106 12:20	7.2	7.2	7.2	95	6.5	0	2	22	0.00	1015.107	141	0.000	1
20081106 12:25	7.3	7.3	7.3	95	6.6	0	0	22	0.00	1014.971	148	0.000	1
20081106 12:30	7.4	7.4	7.4	95	6.7	2	8	315	0.00	1014.870	114	0.000	1
20081106 12:35	7.6	6.5	7.6	95	6.8	6	10	292	0.00	1014.734	107	0.000	1
20081106 12:40	7.6	7.6	7.6	95	6.8	3	6	315	0.00	1014.734	117	0.000	1
20081106 12:45	7.6	7.6	7.6	95	6.8	3	10	315	0.00	1014.565	129	0.000	1
20081106 12:50	7.6	7.6	7.6	95	6.8	5	10	292	0.00	1014.497	116	0.000	1
20081106 12:55	7.6	7.6	7.6	95	6.8	3	8	0	0.00	1014.565	77	0.000	1
20081106 13:00	7.6	7.6	7.6	95	6.8	2	5	0	0.00	1014.531	87	0.040	1
20081106 13:05	7.4	7.4	7.4	94	6.5	2	6	45	0.00	1014.565	132	0.000	1
20081106 13:10	7.4	7.4	7.4	94	6.5	2	5	45	0.00	1014.497	99	0.000	1
20081106 13:15	7.6	7.6	7.6	94	6.7	5	8	45	0.00	1014.396	131	0.000	1
20081106 13:20	7.6	7.6	7.6	94	6.7	2	8	22	0.00	1014.429	33	0.000	0
20081106 13:25	7.6	7.6	7.6	94	6.7	2	6	0	0.00	1014.497	29	0.000	0
20081106 13:30	7.6	7.6	7.6	94	6.7	5	8	45	0.00	1014.260	43	0.000	0
20081106 13:35	7.4	7.4	7.4	93	6.4	2	5	0	0.00	1014.159	48	0.000	0
20081106 13:40	7.4	7.4	7.4	93	6.4	2	6	0	0.00	1014.429	47	0.000	0
20081106 13:45	7.5	7.5	7.5	93	6.4	2	5	0	0.00	1014.700	39	0.000	0
20081106 13:50	7.6	7.6	7.6	93	6.5	2	6	22	0.00	1014.633	34	0.000	0
20081106 13:55	7.6	7.6	7.6	93	6.5	3	8	0	0.00	1014.666	39	0.000	0
20081106 14:00	7.6	7.6	7.6	93	6.6	3	8	22	0.00	1014.531	52	0.020	0
20081106 14:05	7.7	7.7	7.7	93	6.6	0	5	22	0.00	1014.599	56	0.000	0
20081106 14:10	7.7	7.7	7.7	93	6.7	3	6	292	0.00	1014.565	74	0.000	0
20081106 14:15	7.7	7.7	7.7	93	6.7	2	5	292	0.00	1014.396	68	0.000	0
20081106 14:20	7.8	7.8	7.8	93	6.7	2	6	292	0.00	1014.328	59	0.000	0
20081106 14:25	7.8	7.8	7.8	93	6.8	2	6	0	0.00	1014.260	56	0.000	0
20081106 14:30	7.8	7.8	7.8	92	6.6	0	5	292	0.00	1014.294	59	0.000	0
20081106 14:35	7.8	7.8	7.8	92	6.6	3	8	45	0.00	1014.226	49	0.000	0
20081106 14:40	7.7	7.7	7.7	92	6.4	5	8	45	0.00	1014.260	46	0.000	0
20081106 14:45	7.7	7.7	7.7	92	6.4	3	6	22	0.00	1014.429	55	0.000	0
20081106 14:50	7.6	7.6	7.6	92	6.4	3	8	22	0.00	1014.497	43	0.000	0
20081106 14:55	7.6	7.6	7.6	92	6.3	2	5	0	0.00	1014.497	36	0.000	0
20081106 15:00	7.6	7.6	7.6	92	6.3	2	5	0	0.00	1014.531	29	0.020	0
20081106 15:05	7.6	7.6	7.6	92	6.3	2	6	0	0.00	1014.565	26	0.000	0
20081106 15:10	7.6	7.6	7.6	92	6.4	3	5	22	0.00	1014.531	29	0.000	0
20081106 15:15	7.6	7.6	7.6	92	6.3	5	8	45	0.00	1014.497	34	0.000	0
20081106 15:20	7.5	7.5	7.5	92	6.3	3	8	22	0.00	1014.396	34	0.000	0
20081106 15:25	7.5	7.5	7.5	92	6.3	3	6	22	0.00	1014.362	29	0.000	0
20081106 15:30	7.6	7.6	7.6	92	6.3	2	6	45	0.00	1014.429	27	0.000	0
20081106 15:35	7.6	7.6	7.6	93	6.6	2	5	22	0.00	1014.260	27	0.000	0
20081106 15:40	7.6	7.6	7.6	93	6.6	2	5	315	0.00	1014.429	24	0.000	0
20081106 15:45	7.6	7.6	7.6	93	6.6	3	8	22	0.00	1014.328	22	0.000	0
20081106 15:50	7.6	7.6	7.6	92	6.3	3	6	45	0.00	1014.362	26	0.000	0
20081106 15:55	7.5	7.5	7.5	92	6.3	0	3	0	0.00	1014.328	20	0.000	0
20081106 16:00	7.5	7.5	7.5	93	6.4	2	5	22	0.00	1014.192	17	0.020	0
20081106 16:05	7.6	7.6	7.6	93	6.5	3	6	0	0.00	1013.989	13	0.000	0
20081106 16:10	7.6	7.6	7.6	93	6.5	2	5	0	0.00	1013.820	9	0.000	0
20081106 16:15	7.6	7.6	7.6	93	6.5	3	6	0	0.00	1013.684	6	0.000	0
20081106 16:20	7.5	7.5	7.5	93	6.4	3	6	0	0.00	1013.684	5	0.000	0
20081106 16:25	7.5	7.5	7.5	93	6.4	2	8	0	0.00	1013.718	5	0.000	0
20081106 16:30	7.5	7.5	7.5	93	6.4	2	6	22	0.00	1013.888	3	0.000	0
20081106 16:35	7.4	7.4	7.4	93	6.4	3	8	22	0.00	1013.786	0	0.000	0
20081106 16:40	7.4	7.4	7.4	93	6.4	0	3	0	0.00	1013.820	0	0.000	0
20081106 16:45	7.4	7.4	7.4	93	6.3	2	8	0	0.00	1013.854	0	0.000	0
20081106 16:50	7.4	7.4	7.4	93	6.4	0	5	337	0.00	1013.752	0	0.000	0
20081106 16:55	7.4	7.4	7.4	94	6.5	2	3	0	0.00	1013.955	0	0.000	0
20081106 17:00	7.4	7.4	7.4	94	6.5	0	5	315	0.00	1013.989	0	0.000	0
20081106 17:05	7.5	7.5	7.5	94	6.6	2	5	315	0.00	1013.955	0	0.000	0
20081106 17:10	7.5	7.5	7.5	94	6.6	5	8	315	0.00	1013.854	0	0.000	0
20081106 17:15	7.5	7.5	7.5	94	6.6	3	6	315	0.00	1013.854	0	0.000	0
20081106 17:20	7.5	7.5	7.5	94	6.6	2	5	315	0.00	1013.786	0	0.000	0
20081106 17:25	7.6	7.6	7.6	94	6.7	0	3	315	0.00	1013.820	0	0.000	0
20081106 17:30	7.6	7.6	7.6	94	6.7	2	5	22	0.00	1013.752	0	0.000	0
20081106 17:35	7.6	7.6	7.6	94	6.7	3	8	22	0.00	1013.786	0	0.000	0
20081106 17:40	7.6	7.6	7.6	94	6.7	3	6	22	0.00	1013.888	0	0.000	0
20081106 17:45	7.6	7.6	7.6	94	6.7	2	5	22	0.00	1014.057	0	0.000	0
20081106 17:50	7.6	7.6	7.6	94	6.7	0	0	22	0.00	1014.125	0	0.000	0
20081106 17:55	7.6	7.6	7.6	94	6.7	2	6	337	0.00	1014.159	0	0.000	0
20081106 18:00	7.6	7.6	7.6	94	6.7	2	5	0	0.00	1014.023	0	0.000	0
20081106 18:05	7.6	7.6	7.6	94	6.7	2	5	315	0.00	1014.192	0	0.000	0
20081106 18:10	7.6	7.6	7.6	94	6.7	0	6	315	0.00	1014.260	0	0.000	0
20081106 18:15	7.6	7.6	7.6	94	6.7	0	0	315	0.00	1014.429	0	0.000	0
20081106 18:20	7.6	7.6	7.6	94	6.7	0	3	315	0.00	1014.429	0	0.000	0
20081106 18:25	7.6	7.6	7.6	94	6.7	2	5	315	0.00	1014.463	0	0.000	0
20081106 18:30	7.6	7.6	7.6	93	6.5	3	5	315	0.00	1014.497	0	0.000	0
20081106 18:35	7.6	7.6	7.6	93	6.5	5	6	315	0.00	1014.362	0	0.000	0
20081106 18:40	7.6	7.6	7.6	93	6.5	3	6	315	0.00	1014.396	0	0.000	0
20081106 18:45	7.6	7.6	7.6	93	6.5	2	5	315	0.00	1014.429	0	0.000	0
20081106 18:50	7.6	7.6	7.6	93	6.5	2	5	315	0.00	1014.396	0	0.000	0
20081106 18:55	7.5	7.5	7.5	93	6.4	2	5	0	0.00	1014.362	0	0.000	0
20081106 19:00	7.4	7.4	7.4	93	6.4	2	5	292	0.00	1014.328	0	0.000	0
20081106 19:05	7.3	7.3	7.3	93	6.3	5	10	315	0.00	1014.362	0	0.000	0
20081106 19:10	7.3	6.2	7.3	93	6.2	6	14	292	0.00	1014.294	0	0.000	0
20081106 19:15	7.2	6.2	7.2	93	6.2	6	14	292	0.00	1014.294	0	0.000	0
20081106 19:20	7.2	6.1	7.2	93	6.1	6	10	315	0.00	1014.294	0	0.000	0
20081106 19:25	7.1	7.1	7.1	93	6.1	5	10	315	0.00	1014.328	0	0.000	0
20081106 19:30	7.1	7.1	7.1	94	6.2	3	11	315	0.00	1014.328	0	0.000	0
20081106 19:35	7.0	7.0	7.0	94	6.1	3	8	292	0.00	1014.531	0	0.000	0
20081106 19:40	6.9	6.9	6.9	94	6.0	2	5	292	0.00	1014.429	0	0.000	0
20081106 19:45	6.9	6.9	6.9	94	6.0	0	5	337	0.00	1014.362	0	0.000	0
20081106 19:50	6.9	6.9	6.9	94	6.0	2	3	337	0.00	1014.429	0	0.000	0
20081106 19:55	6.9	6.9	6.9	93	5.9	3	6	292	0.00	1014.396	0	0.000	0
20081106 20:00	6.9	5.8	6.9	93	5.8	6	10	292	0.00	1014.294	0	0.000	0
20081106 20:05	6.8	6.8	6.8	93	5.8	5	10	315	0.00	1014.294	0	0.000	0
20081106 20:10	6.8	6.8	6.8	93	5.8	5	11	315	0.00	1014.429	0	0.000	0
20081106 20:15	6.8	6.8	6.8	93	5.8	2	6	315	0.00	1014.531	0	0.000	0
20081106 20:20	6.8	6.8	6.8	93	5.8	2	6	315	0.00	1014.633	0	0.000	0
20081106 20:25	6.8	6.8	6.8	93	5.8	3	6	315	0.00	1014.633	0	0.000	0
20081106 20:30	6.8	6.8	6.8	93	5.8	3	6	315	0.00	1014.565	0	0.000	0
20081106 20:35	6.8	6.8	6.8	93	5.8	2	8	315	0.00	1014.700	0	0.000	0
20081106 20:40	6.8	6.8	6.8	93	5.8	3	6	315	0.00	1014.700	0	0.000	0
20081106 20:45	6.8	6.8	6.8	93	5.8	3	6	315	0.00	1014.666	0	0.000	0
20081106 20:50	6.9	6.9	6.9	94	6.0	0	3	315	0.00	1014.633	0	0.000	0
20081106 20:55	6.9	6.9	6.9	94	6.0	3	8	315	0.00	1014.734	0	0.000	0
20081106 21:00	6.9	6.9	6.9	93	5.8	3	8	315	0.00	1014.802	0	0.000	0
20081106 21:05	6.8	6.8	6.8	93	5.8	5	6	315	0.00	1014.768	0	0.000	0
20081106 21:10	6.9	6.9	6.9	94	6.0	3	10	315	0.00	1014.802	0	0.000	0
20081106 21:15	6.9	6.9	6.9	94	6.0	2	5	292	0.00	1014.768	0	0.000	0
20081106 21:20	6.9	6.9	6.9	94	6.0	0	3	292	0.00	1014.734	0	0.000	0
20081106 21:25	6.9	6.9	6.9	94	6.0	2	5	292	0.00	1014.802	0	0.000	0
20081106 21:30	6.9	6.9	6.9	94	6.0	3	6	270	0.00	1014.768	0	0.000	0
20081106 21:35	6.9	6.9	6.9	94	6.0	2	6	270	0.00	1014.700	0	0.000	0
20081106 21:40	7.0	7.0	7.0	94	6.1	2	5	270	0.00	1014.802	0	0.000	0
20081106 21:45	7.0	7.0	7.0	94	6.1	3	6	270	0.00	1014.802	0	0.000	0
20081106 21:50	7.0	7.0	7.0	94	6.1	5	8	270	0.00	1014.700	0	0.000	0
20081106 21:55	7.0	7.0	7.0	94	6.1	2	6	270	0.00	1014.700	0	0.000	0
20081106 22:00	7.1	7.1	7.1	94	6.2	2	5	270	0.00	1014.802	0	0.000	0
20081106 22:05	7.1	7.1	7.1	94	6.2	0	3	270	0.00	1014.633	0	0.000	0
20081106 22:10	7.1	7.1	7.1	94	6.2	2	5	270	0.00	1014.599	0	0.000	0
20081106 22:15	7.1	7.1	7.1	94	6.2	2	6	270	0.00	1014.396	0	0.000	0
20081106 22:20	7.1	7.1	7.1	94	6.2	0	2	270	0.00	1014.429	0	0.000	0
20081106 22:25	7.1	7.1	7.1	94	6.2	0	2	270	0.00	1014.260	0	0.000	0
20081106 22:30	7.1	7.1	7.1	94	6.2	0	3	270	0.00	1014.260	0	0.000	0
20081106 22:35	7.1	7.1	7.1	94	6.2	2	6	270	0.00	1014.633	0	0.000	0
20081106 22:40	7.1	7.1	7.1	94	6.2	2	5	247	0.00	1014.396	0	0.000	0
20081106 22:45	7.1	7.1	7.1	94	6.2	2	6	247	0.00	1014.633	0	0.000	0
20081106 22:50	7.2	7.2	7.2	94	6.3	2	5	247	0.00	1014.633	0	0.000	0
20081106 22:55	7.2	7.2	7.2	93	6.1	0	3	247	0.00	1014.497	0	0.000	0
20081106 23:00	7.2	7.2	7.2	93	6.1	0	2	247	0.00	1014.599	0	0.000	0
20081106 23:05	7.2	7.2	7.2	93	6.2	2	6	247	0.00	1014.802	0	0.000	0
20081106 23:10	7.2	7.2	7.2	93	6.2	0	3	247	0.00	1014.802	0	0.000	0
20081106 23:15	7.2	7.2	7.2	93	6.2	0	5	247	0.00	1014.700	0	0.000	0
20081106 23:20	7.2	7.2	7.2	93	6.2	0	2	247	0.00	1014.497	0	0.000	0
20081106 23:25	7.2	7.2	7.2	93	6.2	0	0	247	0.00	1014.396	0	0.000	0
20081106 23:30	7.2	7.2	7.2	93	6.2	0	0	247	0.00	1014.429	0	0.000	0
20081106 23:35	7.3	7.3	7.3	93	6.2	0	0	247	0.00	1014.531	0	0.000	0
20081106 23:40	7.2	7.2	7.2	93	6.2	0	0	247	0.00	1014.565	0	0.000	0
20081106 23:45	7.3	7.3	7.3	93	6.2	0	2	247	0.00	1014.802	0	0.000	0
20081106 23:50	7.3	7.3	7.3	93	6.2	0	3	247	0.00	1014.700	0	0.000	0
20081106 23:55	7.3	7.3	7.3	93	6.2	0	3	247	0.00	1014.802	0	0.000	0
20081106 24:00	7.3	7.3	7.3	93	6.3	2	5	247	0.00	1014.937	0	0.000	0



Please note the license to use and transfer of this data:
http://creativecommons.org/licenses/by-nc-sa/3.0/deed.en

Bitte beachten sie die Lizenz zur Verwertung und Weitergabe der Daten:
http://creativecommons.org/licenses/by-nc-sa/3.0/deed.de

zurück zur Übersicht der Archivdaten (Monats und Tagesdaten)

Cookies helfen bei der Bereitstellung von Inhalten. Durch die Nutzung dieser Seiten erklärst du dich damit einverstanden, dass Cookies auf deinem Rechner gespeichert werden. Weitere Information